Time;durP1;ratioP1;P1;durP2;ratioP2;P2;SDS_P1;SDS_P2;PMS_P1;PMS_P2;Temp;Humidity;BMP_temperature;BMP_pressure;BME280_temperature;BME280_humidity;BME280_pressure;Samples;Min_cycle;Max_cycle;Signal;HPM_P1;HPM_P2
2023/01/13 00:02:16;;;;;;;48.70;6.03;;;;;;;;;;5034783;28;20123;-76
2023/01/13 00:04:42;;;;;;;82.03;7.88;;;;;;;;;;5034586;28;20508;-75
2023/01/13 00:07:09;;;;;;;66.78;7.97;;;;;;;;;;5034949;28;20115;-76
2023/01/13 00:09:35;;;;;;;72.32;7.78;;;;;;;;;;5018658;28;20041;-75
2023/01/13 00:12:01;;;;;;;63.30;6.63;;;;;;;;;;5018090;28;20044;-76
2023/01/13 00:14:29;;;;;;;72.70;8.65;;;;;;;;;;5034464;28;20046;-75
2023/01/13 00:16:55;;;;;;;74.32;9.10;;;;;;;;;;5034172;28;20382;-75
2023/01/13 00:19:21;;;;;;;60.22;9.23;;;;;;;;;;5034440;28;20123;-75
2023/01/13 00:21:47;;;;;;;57.75;7.10;;;;;;;;;;5034426;28;20045;-75
2023/01/13 00:24:13;;;;;;;81.55;8.82;;;;;;;;;;5033506;28;20088;-75
2023/01/13 00:26:39;;;;;;;59.20;7.82;;;;;;;;;;5034303;28;20049;-75
2023/01/13 00:29:05;;;;;;;68.85;7.88;;;;;;;;;;5034436;28;20479;-76
2023/01/13 00:31:31;;;;;;;72.18;8.68;;;;;;;;;;5034438;28;20390;-75
2023/01/13 00:33:59;;;;;;;83.50;9.63;;;8.80;99.90;;;;;;5033346;28;20131;-75
2023/01/13 00:36:25;;;;;;;74.07;7.85;;;;;;;;;;5034574;28;20038;-76
2023/01/13 00:38:51;;;;;;;63.90;7.43;;;;;;;;;;5034535;28;20041;-76
2023/01/13 00:41:19;;;;;;;70.88;7.28;;;;;;;;;;5034171;28;20153;-76
2023/01/13 00:43:46;;;;;;;76.15;6.43;;;8.50;99.90;;;;;;5033777;28;20052;-76
2023/01/13 00:46:13;;;;;;;80.47;9.52;;;;;;;;;;5034026;28;20049;-75
2023/01/13 00:48:40;;;;;;;50.70;6.65;;;;;;;;;;5017660;28;20127;-76
2023/01/13 00:51:11;;;;;;;72.10;6.45;;;;;;;;;;5033874;28;20041;-71
2023/01/13 00:53:38;;;;;;;67.18;8.40;;;;;;;;;;5017487;28;20128;-71
2023/01/13 00:56:08;;;;;;;72.70;7.50;;;8.50;99.90;;;;;;5033912;28;20045;-71
2023/01/13 00:58:34;;;;;;;65.10;7.72;;;8.40;99.90;;;;;;5033654;28;20559;-71
2023/01/13 01:01:06;;;;;;;58.60;7.82;;;8.50;99.90;;;;;;5033596;28;20489;-71
2023/01/13 01:03:32;;;;;;;85.45;9.15;;;;;;;;;;5033589;28;20033;-71
2023/01/13 01:06:03;;;;;;;72.57;8.63;;;;;;;;;;5033646;28;20073;-71
2023/01/13 01:08:29;;;;;;;80.35;8.60;;;;;;;;;;5033342;28;20044;-71
2023/01/13 01:11:04;;;;;;;69.30;8.77;;;8.20;99.90;;;;;;5033538;28;20041;-71
2023/01/13 01:13:30;;;;;;;69.40;6.97;;;;;;;;;;5016720;28;20120;-71
2023/01/13 01:15:56;;;;;;;76.40;8.30;;;;;;;;;;5033376;28;20057;-71
2023/01/13 01:18:22;;;;;;;68.35;8.63;;;;;;;;;;5033630;28;20053;-71
2023/01/13 01:20:49;;;;;;;66.53;6.97;;;;;;;;;;5033508;28;20387;-71
2023/01/13 01:23:15;;;;;;;81.50;7.05;;;;;;;;;;5016792;28;20439;-71
2023/01/13 01:25:41;;;;;;;65.93;6.90;;;;;;;;;;5033116;28;20045;-71
2023/01/13 01:28:07;;;;;;;73.07;8.27;;;;;;;;;;5032109;28;20041;-71
2023/01/13 01:30:33;;;;;;;56.92;6.70;;;;;;;;;;5016572;28;20470;-71
2023/01/13 01:33:01;;;;;;;54.63;6.43;;;;;;;;;;5033275;28;20041;-71
2023/01/13 01:35:28;;;;;;;65.30;8.50;;;;;;;;;;5033174;28;20041;-71
2023/01/13 01:37:54;;;;;;;81.60;9.27;;;;;;;;;;5032885;28;20041;-71
2023/01/13 01:40:20;;;;;;;59.00;8.52;;;;;;;;;;5032867;28;20041;-71
2023/01/13 01:45:30;;;;;;;60.80;8.90;;;;;;;;;;5032891;28;20111;-71
2023/01/13 01:48:00;;;;;;;71.70;8.50;;;8.30;99.90;;;;;;5032973;28;20045;-71
2023/01/13 01:50:27;;;;;;;84.43;8.30;;;8.30;99.90;;;;;;5032628;28;20079;-71
2023/01/13 01:52:56;;;;;;;70.80;7.13;;;;;;;;;;5001200;28;20041;-71
2023/01/13 01:55:28;;;;;;;85.03;8.18;;;8.20;99.90;;;;;;5032814;28;20045;-71
2023/01/13 01:58:06;;;;;;;79.72;8.35;;;8.50;99.90;;;;;;5049059;28;20045;-71
2023/01/13 02:00:32;;;;;;;70.07;7.95;;;;;;;;;;5016102;28;20053;-72
2023/01/13 02:02:58;;;;;;;62.10;8.43;;;;;;;;;;5032606;28;20041;-71
2023/01/13 02:05:25;;;;;;;56.13;8.40;;;;;;;;;;5049293;28;20043;-71
2023/01/13 02:07:53;;;;;;;68.80;7.63;;;8.30;99.90;;;;;;5032464;28;20041;-71
2023/01/13 02:10:20;;;;;;;55.22;8.20;;;;;;;;;;5032384;28;20049;-71
2023/01/13 02:12:46;;;;;;;68.95;6.63;;;8.50;99.90;;;;;;5032437;28;20037;-71
2023/01/13 02:15:31;;;;;;;62.67;6.63;;;8.50;99.90;;;;;;5016073;28;20090;-71
2023/01/13 02:18:03;;;;;;;79.95;7.95;;;;;;;;;;5032107;28;20098;-71
2023/01/13 02:21:12;;;;;;;59.70;5.50;;;8.40;99.90;;;;;;5032201;28;20644;-71
2023/01/13 02:26:38;;;;;;;66.68;7.72;;;8.30;99.90;;;;;;5032361;28;20053;-71
2023/01/13 02:32:40;;;;;;;56.25;7.10;;;;;;;;;;5032003;28;20052;-71
2023/01/13 02:35:10;;;;;;;74.53;7.32;;;;;;;;;;5009825;28;20052;-71
2023/01/13 02:37:40;;;;;;;77.50;8.05;;;8.20;99.90;;;;;;5015801;28;20033;-71
2023/01/13 02:40:32;;;;;;;62.35;7.70;;;8.30;99.90;;;;;;5032068;28;20095;-71
2023/01/13 02:45:54;;;;;;;66.25;6.55;;;8.50;99.90;;;;;;5032143;28;20231;-71
2023/01/13 02:48:22;;;;;;;85.65;9.32;;;;;;;;;;5032132;28;20398;-71
2023/01/13 02:50:55;;;;;;;78.72;8.98;;;8.20;99.90;;;;;;5031835;28;20128;-70
2023/01/13 02:53:28;;;;;;;76.75;8.68;;;8.40;99.90;;;;;;5031684;28;20500;-71
2023/01/13 02:55:54;;;;;;;88.55;9.95;;;;;;;;;;5031797;28;20045;-71
2023/01/13 02:58:26;;;;;;;98.35;10.15;;;8.30;99.90;;;;;;5031612;28;20037;-71
2023/01/13 03:00:52;;;;;;;73.50;8.33;;;;;;;;;;5015326;28;20054;-71
2023/01/13 03:03:18;;;;;;;81.70;9.80;;;;;;;;;;5015328;28;20315;-70
2023/01/13 03:05:47;;;;;;;80.95;8.15;;;8.10;99.90;;;;;;5031734;28;20096;-71
2023/01/13 03:08:31;;;;;;;69.90;7.90;;;8.20;99.90;;;;;;5031644;28;20481;-71
2023/01/13 03:11:06;;;;;;;63.55;8.32;;;;;;;;;;5031897;28;20053;-70
2023/01/13 03:13:51;;;;;;;67.07;8.20;;;;;;;;;;5031745;28;20037;-70
2023/01/13 03:16:19;;;;;;;70.28;9.27;;;8.50;99.90;;;;;;5031526;28;20485;-70
2023/01/13 03:18:51;;;;;;;71.95;8.02;;;;;;;;;;5031496;28;20099;-71
2023/01/13 03:21:24;;;;;;;68.85;8.07;;;8.50;99.90;;;;;;5031495;28;20131;-71
2023/01/13 03:23:50;;;;;;;;;;;8.40;99.90;;;;;;5031759;28;20045;-71
2023/01/13 03:26:36;;;;;;;67.30;6.70;;;;;;;;;;5031419;28;19924;-70
2023/01/13 03:29:13;;;;;;;59.42;7.43;;;8.40;99.90;;;;;;5014772;28;20040;-71
2023/01/13 03:31:47;;;;;;;54.47;5.97;;;8.40;99.90;;;;;;5032543;28;20401;-71
2023/01/13 03:34:17;;;;;;;68.88;7.30;;;8.30;99.90;;;;;;5031310;28;20117;-71
2023/01/13 03:36:45;;;;;;;58.00;6.93;;;8.30;99.90;;;;;;5031392;28;20128;-71
2023/01/13 03:39:14;;;;;;;57.33;8.27;;;;;;;;;;5031354;28;20374;-71
2023/01/13 03:42:00;;;;;;;48.85;7.35;;;8.40;99.90;;;;;;5031427;28;20051;-71
2023/01/13 03:44:32;;;;;;;56.95;5.88;;;8.30;99.90;;;;;;5031239;28;20085;-71
2023/01/13 03:46:58;;;;;;;49.63;5.82;;;;;;;;;;5031204;28;20481;-71
2023/01/13 03:49:27;;;;;;;56.17;6.88;;;;;;;;;;5031259;28;20499;-71
2023/01/13 03:51:57;;;;;;;60.42;6.57;;;8.20;99.90;;;;;;5033799;28;20080;-71
2023/01/13 03:54:27;;;;;;;61.13;7.80;;;8.10;99.90;;;;;;5034975;28;20037;-71
2023/01/13 03:57:03;;;;;;;68.57;6.80;;;8.20;99.90;;;;;;5034855;28;20493;-71
2023/01/13 03:59:33;;;;;;;68.63;6.38;;;;;;;;;;5034717;28;20052;-71
2023/01/13 04:02:07;;;;;;;65.65;7.32;;;;;;;;;;5034785;28;20115;-71
2023/01/13 04:04:47;;;;;;;73.03;7.13;;;;;;;;;;5034948;28;20052;-71
2023/01/13 04:07:39;;;;;;;54.55;6.93;;;8.40;99.90;;;;;;5034725;28;20478;-71
2023/01/13 04:10:10;;;;;;;63.90;8.37;;;8.00;99.90;;;;;;5034681;28;20041;-71
2023/01/13 04:13:02;;;;;;;59.28;7.47;;;;;;;;;;5034911;28;20268;-77
2023/01/13 04:15:39;;;;;;;75.65;6.75;;;;;;;;;;5031231;28;20360;-77
2023/01/13 04:18:11;;;;;;;66.30;8.43;;;8.30;99.90;;;;;;5014863;28;20056;-77
2023/01/13 04:20:37;;;;;;;62.28;6.30;;;;;;;;;;5014898;28;20045;-77
2023/01/13 04:23:03;;;;;;;65.93;6.63;;;;;;;;;;5014956;28;20085;-77
2023/01/13 04:25:29;;;;;;;59.17;7.70;;;;;;;;;;5015240;28;20119;-76
2023/01/13 04:27:55;;;;;;;65.88;6.55;;;;;;;;;;5014425;28;20088;-76
2023/01/13 04:30:21;;;;;;;69.78;7.78;;;;;;;;;;5014542;28;20037;-77
2023/01/13 04:32:48;;;;;;;46.95;5.90;;;;;;;;;;5014982;28;20471;-77
2023/01/13 04:35:14;;;;;;;61.20;7.75;;;;;;;;;;5014610;28;20080;-77
2023/01/13 04:37:40;;;;;;;63.83;6.82;;;;;;;;;;5014670;28;20046;-77
2023/01/13 04:40:06;;;;;;;43.17;6.55;;;8.20;99.90;;;;;;5014234;28;20123;-77
2023/01/13 04:42:32;;;;;;;61.47;6.65;;;;;;;;;;5014657;28;20104;-77
2023/01/13 04:44:59;;;;;;;51.60;6.78;;;;;;;;;;5016484;28;20064;-76
2023/01/13 04:47:25;;;;;;;51.47;7.32;;;;;;;;;;5018522;28;20072;-76
2023/01/13 04:49:51;;;;;;;67.07;8.10;;;;;;;;;;5016940;28;20383;-76
2023/01/13 04:52:17;;;;;;;64.45;6.63;;;;;;;;;;5016012;28;20095;-76
2023/01/13 04:54:43;;;;;;;55.58;6.35;;;;;;;;;;5014392;28;20061;-76
2023/01/13 04:57:09;;;;;;;45.65;6.28;;;;;;;;;;5014095;28;20129;-77
2023/01/13 04:59:35;;;;;;;62.95;8.45;;;;;;;;;;5027819;28;20135;-76
2023/01/13 05:02:01;;;;;;;75.63;7.45;;;;;;;;;;5033763;28;20489;-76
2023/01/13 05:04:27;;;;;;;58.58;6.63;;;;;;;;;;5017411;28;20087;-76
2023/01/13 05:06:53;;;;;;;68.30;8.10;;;;;;;;;;5017613;28;20117;-77
2023/01/13 05:09:19;;;;;;;61.05;7.05;;;;;;;;;;5034166;28;20051;-77
2023/01/13 05:17:23;;;;;;;63.85;7.75;;;;;;;;;;5053584;28;20052;-76
2023/01/13 05:19:49;;;;;;;51.92;5.78;;;;;;;;;;5053655;28;20061;-76
2023/01/13 05:27:45;;;;;;;40.60;5.13;;;;;;;;;;5052987;28;20135;-76
2023/01/13 05:30:11;;;;;;;51.97;5.35;;;;;;;;;;5053499;28;20044;-76
2023/01/13 05:32:37;;;;;;;50.20;5.47;;;;;;;;;;5053335;28;20131;-76
2023/01/13 05:35:03;;;;;;;46.05;5.03;;;;;;;;;;5036413;28;20036;-76
2023/01/13 05:37:29;;;;;;;46.60;5.45;;;;;;;;;;5036670;28;20397;-73
2023/01/13 05:45:25;;;;;;;42.45;4.78;;;;;;;;;;5032598;28;20054;-76
2023/01/13 05:47:51;;;;;;;37.33;5.35;;;;;;;;;;5032783;28;20482;-76
2023/01/13 05:50:17;;;;;;;45.75;6.20;;;;;;;;;;5016704;28;20033;-77
2023/01/13 05:52:43;;;;;;;52.92;7.45;;;;;;;;;;5033119;28;20045;-77
2023/01/13 05:55:10;;;;;;;41.40;5.85;;;;;;;;;;5016359;28;20508;-76
2023/01/13 05:57:36;;;;;;;44.17;6.07;;;;;;;;;;5014802;28;20509;-76
2023/01/13 06:00:03;;;;;;;47.45;6.63;;;;;;;;;;5033123;28;20059;-76
2023/01/13 06:02:29;;;;;;;50.58;5.60;;;;;;;;;;5032701;28;20053;-76
2023/01/13 06:04:55;;;;;;;44.90;6.43;;;;;;;;;;5032342;28;20530;-76
2023/01/13 06:07:21;;;;;;;53.15;7.43;;;;;;;;;;5016035;28;20128;-77
2023/01/13 06:09:47;;;;;;;45.75;5.10;;;;;;;;;;5016196;28;20404;-77
2023/01/13 06:12:14;;;;;;;49.55;5.40;;;;;;;;;;5015885;28;20041;-77
2023/01/13 06:14:40;;;;;;;50.53;5.43;;;;;;;;;;5015470;28;20045;-77
2023/01/13 06:17:13;;;;;;;44.40;5.38;;;;;;;;;;5032217;28;20042;-77
2023/01/13 06:19:39;;;;;;;54.45;5.63;;;;;;;;;;5032748;28;20167;-76
2023/01/13 06:22:21;;;;;;;43.65;5.93;;;;;;;;;;5032497;28;20068;-78
2023/01/13 06:24:49;;;;;;;49.08;5.45;;;;;;;;;;5032135;28;20049;-76
2023/01/13 06:27:16;;;;;;;57.88;6.15;;;8.10;99.90;;;;;;5032051;28;20043;-75
2023/01/13 06:29:42;;;;;;;38.80;5.32;;;;;;;;;;5015728;28;20041;-75
2023/01/13 06:32:14;;;;;;;45.67;5.00;;;8.50;99.90;;;;;;5032211;28;20041;-75
2023/01/13 06:34:43;;;;;;;54.45;6.32;;;8.40;99.90;;;;;;5032082;28;20045;-76
2023/01/13 06:37:11;;;;;;;33.22;4.82;;;;;;;;;;5031970;28;20041;-76
2023/01/13 06:39:37;;;;;;;51.90;6.05;;;;;;;;;;5032112;28;20049;-76
2023/01/13 06:44:49;;;;;;;48.85;5.53;;;;;;;;;;5031931;28;20056;-75
2023/01/13 06:47:15;;;;;;;38.35;5.32;;;;;;;;;;5015812;28;20091;-75
2023/01/13 06:49:41;;;;;;;53.70;5.95;;;;;;;;;;5015819;28;20053;-76
2023/01/13 06:52:07;;;;;;;39.55;5.15;;;;;;;;;;5032257;28;20132;-76
2023/01/13 06:54:33;;;;;;;45.40;4.93;;;;;;;;;;5032067;28;20047;-76
2023/01/13 06:57:00;;;;;;;41.05;5.72;;;;;;;;;;5015673;28;20055;-75
2023/01/13 06:59:26;;;;;;;47.60;6.60;;;;;;;;;;5033236;28;20450;-76
2023/01/13 07:01:52;;;;;;;52.63;6.38;;;;;;;;;;5015560;28;20080;-76
2023/01/13 07:04:18;;;;;;;58.97;5.22;;;;;;;;;;5030051;28;20052;-76
2023/01/13 07:06:44;;;;;;;50.25;6.15;;;;;;;;;;5029346;28;20037;-74
2023/01/13 07:09:10;;;;;;;41.17;5.68;;;;;;;;;;5013694;28;20052;-76
2023/01/13 07:11:36;;;;;;;54.53;5.68;;;;;;;;;;5029502;28;20042;-76
2023/01/13 07:16:47;;;;;;;56.90;7.18;;;;;;;;;;5031350;28;20049;-76
2023/01/13 07:19:14;;;;;;;40.38;4.32;;;;;;;;;;5014371;28;20077;-76
2023/01/13 07:21:41;;;;;;;39.05;5.22;;;;;;;;;;5031391;28;20050;-76
2023/01/13 07:24:07;;;;;;;52.03;5.63;;;;;;;;;;5026861;28;20053;-76
2023/01/13 07:26:33;;;;;;;43.40;4.93;;;;;;;;;;5018187;28;20128;-75
2023/01/13 07:28:59;;;;;;;43.67;5.72;;;;;;;;;;5038776;28;20040;-76
2023/01/13 07:31:25;;;;;;;49.25;4.57;;;;;;;;;;5038948;28;20041;-76
2023/01/13 07:33:51;;;;;;;48.03;5.60;;;;;;;;;;5055390;28;20041;-76
2023/01/13 07:36:18;;;;;;;48.67;5.68;;;;;;;;;;5055649;28;20044;-75
2023/01/13 07:38:44;;;;;;;44.15;5.72;;;;;;;;;;5038846;28;20053;-76
2023/01/13 07:43:59;;;;;;;36.97;5.20;;;;;;;;;;5058008;28;20053;-76
2023/01/13 07:46:25;;;;;;;47.70;6.68;;;;;;;;;;5041967;28;20095;-76
2023/01/13 07:48:51;;;;;;;45.90;6.03;;;;;;;;;;5044984;28;20045;-76
2023/01/13 07:51:17;;;;;;;62.28;6.95;;;;;;;;;;5023681;28;20041;-77
2023/01/13 07:53:43;;;;;;;54.67;6.90;;;;;;;;;;5019323;28;20077;-78
2023/01/13 07:56:13;;;;;;;55.97;6.07;;;;;;;;;;5019254;28;20500;-77
2023/01/13 07:58:39;;;;;;;53.78;8.27;;;;;;;;;;5035770;28;20041;-78
2023/01/13 08:01:11;;;;;;;53.05;5.55;;;8.50;99.90;;;;;;5018769;28;20457;-78
2023/01/13 08:03:38;;;;;;;60.67;7.03;;;8.50;99.90;;;;;;5034745;28;20045;-77
2023/01/13 08:06:05;;;;;;;52.45;8.02;;;;;;;;;;5002183;28;20107;-78
2023/01/13 08:08:31;;;;;;;64.10;6.82;;;;;;;;;;5018190;28;20041;-78
2023/01/13 08:11:01;;;;;;;36.13;4.22;;;8.40;99.90;;;;;;5034911;28;20045;-78
2023/01/13 08:13:27;;;;;;;72.07;7.50;;;;;;;;;;5034758;28;20049;-77
2023/01/13 08:15:59;;;;;;;46.05;6.15;;;8.40;99.90;;;;;;5018006;28;20057;-78
2023/01/13 08:18:25;;;;;;;58.85;8.13;;;;;;;;;;5034844;28;20060;-78
2023/01/13 08:20:52;;;;;;;48.97;5.78;;;8.60;99.90;;;;;;5034442;28;20073;-78
2023/01/13 08:23:18;;;;;;;54.72;6.80;;;;;;;;;;5034808;28;20049;-78
2023/01/13 08:25:45;;;;;;;45.78;5.88;;;;;;;;;;5019586;28;20389;-77
2023/01/13 08:28:11;;;;;;;65.47;8.52;;;;;;;;;;5034484;28;20055;-78
2023/01/13 08:30:37;;;;;;;47.35;5.72;;;;;;;;;;5034171;28;20040;-76
2023/01/13 08:33:07;;;;;;;59.90;6.93;;;8.40;99.90;;;;;;5033900;28;20377;-78
2023/01/13 08:35:33;;;;;;;61.42;6.20;;;;;;;;;;5034172;28;20072;-78
2023/01/13 08:37:59;;;;;;;61.05;7.40;;;;;;;;;;5017729;28;20045;-77
2023/01/13 08:40:25;;;;;;;45.97;5.30;;;;;;;;;;5001705;28;20114;-77
2023/01/13 08:42:52;;;;;;;55.40;6.60;;;;;;;;;;5034602;28;20041;-77
2023/01/13 08:45:18;;;;;;;47.65;5.40;;;;;;;;;;5017095;28;20053;-77
2023/01/13 08:47:44;;;;;;;48.70;5.40;;;;;;;;;;5034083;28;20370;-77
2023/01/13 08:50:11;;;;;;;60.17;4.95;;;8.20;99.90;;;;;;5034022;28;20080;-77
2023/01/13 08:52:37;;;;;;;42.65;4.95;;;;;;;;;;5050491;28;20090;-77
2023/01/13 08:55:03;;;;;;;51.75;5.53;;;;;;;;;;5033839;28;20049;-77
2023/01/13 08:57:29;;;;;;;41.58;6.68;;;;;;;;;;5033899;28;20060;-77
2023/01/13 08:59:56;;;;;;;56.13;5.65;;;;;;;;;;5033617;28;20045;-77
2023/01/13 09:02:23;;;;;;;44.92;5.93;;;8.10;99.90;;;;;;5033880;28;20041;-77
2023/01/13 09:04:49;;;;;;;50.38;6.05;;;7.90;99.90;;;;;;5033458;28;20055;-76
2023/01/13 09:07:16;;;;;;;56.60;6.57;;;;;;;;;;5033925;28;20030;-76
2023/01/13 09:09:42;;;;;;;57.15;5.93;;;;;;;;;;5017413;28;20147;-77
2023/01/13 09:14:56;;;;;;;43.67;5.30;;;;;;;;;;5033453;28;20046;-78
2023/01/13 09:17:22;;;;;;;50.13;5.43;;;;;;;;;;5033871;28;20041;-78
2023/01/13 09:19:48;;;;;;;39.33;6.97;;;;;;;;;;5016634;28;20037;-78
2023/01/13 09:22:17;;;;;;;73.03;7.40;;;7.70;99.90;;;;;;5033577;28;20566;-78
2023/01/13 09:24:43;;;;;;;54.58;6.50;;;;;;;;;;5033331;28;20532;-78
2023/01/13 09:27:14;;;;;;;65.13;7.68;;;8.00;99.90;;;;;;5033497;28;20099;-77
2023/01/13 09:29:40;;;;;;;53.38;6.57;;;;;;;;;;5032536;28;20508;-78
2023/01/13 09:32:07;;;;;;;49.50;4.40;;;;;;;;;;5032121;28;20046;-76
2023/01/13 09:37:18;;;;;;;53.00;7.85;;;;;;;;;;5033282;28;20374;-77
2023/01/13 09:39:44;;;;;;;34.38;4.93;;;;;;;;;;5033094;28;20053;-76
2023/01/13 09:45:31;;;;;;;50.30;5.53;;;7.80;99.90;;;;;;5032577;28;20051;-77
2023/01/13 09:48:22;;;;;;;65.38;7.68;;;8.00;99.90;;;;;;5032598;28;20404;-77
2023/01/13 09:51:03;;;;;;;47.33;4.57;;;8.10;99.90;;;;;;5033015;28;20140;-77
2023/01/13 09:53:54;;;;;;;56.40;6.38;;;7.90;99.90;;;;;;5032663;28;20076;-77
2023/01/13 09:56:22;;;;;;;54.97;6.93;;;8.10;99.90;;;;;;5017008;28;20041;-77
2023/01/13 09:58:48;;;;;;;60.65;6.80;;;;;;;;;;5032572;28;20049;-77
2023/01/13 10:01:23;;;;;;;58.28;6.53;;;;;;;;;;5032814;28;20041;-77
2023/01/13 10:03:49;;;;;;;55.00;5.88;;;;;;;;;;5032578;28;20084;-77
2023/01/13 10:06:35;;;;;;;44.22;4.57;;;8.10;99.90;;;;;;5016125;28;20045;-77
2023/01/13 10:09:02;;;;;;;46.80;7.43;;;;;;;;;;5032526;28;20052;-77
2023/01/13 10:14:29;;;;;;;47.15;5.03;;;8.30;99.90;;;;;;5032201;28;20045;-76
2023/01/13 10:17:10;;;;;;;53.95;8.55;;;8.20;99.90;;;;;;5032565;28;20124;-77
2023/01/13 10:19:36;;;;;;;55.33;5.95;;;;;;;;;;5032021;28;20080;-77
2023/01/13 10:22:21;;;;;;;48.40;5.82;;;8.30;99.90;;;;;;5032094;28;20038;-77
2023/01/13 10:24:51;;;;;;;48.67;5.70;;;;;;;;;;5030936;28;20049;-77
2023/01/13 10:27:17;;;;;;;60.03;6.32;;;;;;;;;;5030920;28;20041;-77
2023/01/13 10:29:43;;;;;;;52.20;6.05;;;;;;;;;;5030435;28;20053;-77
2023/01/13 10:32:09;;;;;;;63.83;6.28;;;;;;;;;;4999427;28;20045;-77
2023/01/13 10:34:56;;;;;;;52.95;6.40;;;8.50;99.90;;;;;;5032246;28;20041;-77
2023/01/13 10:37:26;;;;;;;48.40;5.88;;;;;;;;;;5032400;28;20056;-77
2023/01/13 10:39:56;;;;;;;59.42;6.47;;;;;;;;;;5032035;28;20174;-77
2023/01/13 10:42:24;;;;;;;59.53;6.65;;;;;;;;;;5032264;28;20165;-77
2023/01/13 10:44:55;;;;;;;49.45;5.35;;;8.80;99.90;;;;;;5032112;28;20088;-77
2023/01/13 10:47:21;;;;;;;59.90;6.53;;;;;;;;;;5038350;28;20048;-78
2023/01/13 10:50:01;;;;;;;46.40;6.30;;;8.50;99.90;;;;;;5012878;28;20175;-77
2023/01/13 10:52:30;;;;;;;51.05;6.85;;;8.60;99.90;;;;;;5012109;28;20042;-77
2023/01/13 10:54:56;;;;;;;52.35;6.30;;;;;;;;;;5012402;28;20068;-77
2023/01/13 10:57:24;;;;;;;41.38;5.10;;;8.50;99.90;;;;;;5012135;28;20490;-77
2023/01/13 10:59:50;;;;;;;59.92;7.43;;;8.50;99.90;;;;;;5013115;28;20053;-77
2023/01/13 11:02:16;;;;;;;51.00;5.07;;;;;;;;;;5016317;28;20398;-77
2023/01/13 11:04:43;;;;;;;51.20;5.43;;;;;;;;;;5016775;28;20506;-77
2023/01/13 11:07:21;;;;;;;49.05;6.18;;;;;;;;;;5016134;28;20078;-77
2023/01/13 11:09:48;;;;;;;35.63;5.10;;;;;;;;;;5023231;28;20081;-78
2023/01/13 11:12:34;;;;;;;44.50;5.97;;;9.00;99.90;;;;;;5031815;28;20496;-77
2023/01/13 11:15:04;;;;;;;44.88;5.32;;;8.70;99.90;;;;;;5044389;28;20489;-78
2023/01/13 11:17:30;;;;;;;41.15;4.80;;;;;;;;;;5019273;28;20120;-77
2023/01/13 11:20:12;;;;;;;38.83;5.90;;;8.90;99.90;;;;;;5035423;28;20067;-78
2023/01/13 11:22:50;;;;;;;48.55;7.65;;;8.80;99.90;;;;;;5035550;28;20088;-77
2023/01/13 11:25:30;;;;;;;44.88;6.85;;;9.10;99.90;;;;;;5035506;28;20124;-78
2023/01/13 11:28:04;;;;;;;52.88;6.60;;;8.80;99.90;;;;;;5019088;28;20052;-78
2023/01/13 11:31:03;;;;;;;45.35;6.85;;;8.70;99.90;;;;;;5019349;28;20073;-79
2023/01/13 11:33:35;;;;;;;38.92;5.78;;;;;;;;;;5053455;28;20107;-77
2023/01/13 11:36:21;;;;;;;44.33;6.70;;;9.00;99.90;;;;;;5035571;28;20394;-78
2023/01/13 11:38:47;;;;;;;62.42;8.02;;;;;;;;;;5035217;28;20523;-78
2023/01/13 11:41:17;;;;;;;34.92;4.38;;;;;;;;;;5035209;28;20044;-77
2023/01/13 11:43:43;;;;;;;40.40;6.00;;;;;;;;;;5034903;28;20058;-77
2023/01/13 11:46:10;;;;;;;44.45;5.70;;;;;;;;;;5035372;28;20115;-78
2023/01/13 11:48:40;;;;;;;46.75;6.15;;;9.20;99.90;;;;;;5034880;28;20095;-78
2023/01/13 11:51:06;;;;;;;58.58;6.45;;;;;;;;;;5034427;28;20128;-78
2023/01/13 11:53:32;;;;;;;41.13;4.28;;;;;;;;;;5018775;28;20092;-78
2023/01/13 11:56:01;;;;;;;46.05;5.30;;;;;;;;;;5017690;28;20041;-78
2023/01/13 11:58:45;;;;;;;44.42;5.07;;;9.30;99.90;;;;;;5018946;28;20123;-78
2023/01/13 12:01:27;;;;;;;44.00;5.90;;;;;;;;;;5035108;28;20077;-78
2023/01/13 12:04:39;;;;;;;39.50;4.75;;;9.30;99.90;;;;;;5017392;28;20038;-77
2023/01/13 12:07:37;;;;;;;41.35;5.30;;;9.40;99.90;;;;;;5032460;28;20051;-77
2023/01/13 12:10:24;;;;;;;44.40;5.10;;;9.50;99.90;;;;;;5004901;28;20490;-78
2023/01/13 12:12:50;;;;;;;45.05;6.32;;;;;;;;;;4999610;28;20060;-78
2023/01/13 12:15:24;;;;;;;46.85;6.20;;;;;;;;;;5018666;28;20041;-78
2023/01/13 12:17:55;;;;;;;46.55;6.75;;;9.50;99.90;;;;;;5018556;28;20171;-78
2023/01/13 12:20:47;;;;;;;38.30;4.15;;;9.40;99.90;;;;;;5034652;28;20049;-78
2023/01/13 12:23:23;;;;;;;30.83;4.90;;;;;;;;;;5033929;28;20138;-78
2023/01/13 12:25:52;;;;;;;42.92;4.47;;;;;;;;;;5017323;28;20037;-77
2023/01/13 12:28:49;;;;;;;31.75;3.75;;;9.30;99.90;;;;;;5035235;28;20060;-77
2023/01/13 12:31:19;;;;;;;34.58;4.47;;;;;;;;;;5036861;28;20048;-78
2023/01/13 12:33:59;;;;;;;45.55;4.50;;;9.40;99.90;;;;;;5054893;28;20049;-76
2023/01/13 12:36:38;;;;;;;47.17;4.93;;;;;;;;;;5045021;28;20041;-78
2023/01/13 12:39:33;;;;;;;57.58;6.40;;;9.40;99.90;;;;;;5034438;28;20059;-78
2023/01/13 12:45:11;;;;;;;34.72;5.57;;;9.20;99.90;;;;;;5034108;28;20452;-78
2023/01/13 12:47:38;;;;;;;37.25;5.32;;;;;;;;;;5017897;28;20078;-78
2023/01/13 12:50:22;;;;;;;29.48;5.70;;;;;;;;;;5034289;28;20091;-78
2023/01/13 12:52:59;;;;;;;38.30;5.63;;;9.30;99.90;;;;;;5034571;28;20128;-78
2023/01/13 12:55:26;;;;;;;45.80;5.55;;;;;;;;;;5034253;28;20128;-78
2023/01/13 12:57:58;;;;;;;39.95;4.82;;;;;;;;;;5033800;28;20492;-78
2023/01/13 13:00:50;;;;;;;44.70;6.78;;;9.30;99.90;;;;;;5034152;28;20401;-78
2023/01/13 13:03:30;;;;;;;25.73;4.07;;;;;;;;;;5014289;28;20142;-78
2023/01/13 13:06:00;;;;;;;42.20;5.43;;;;;;;;;;5036360;28;20808;-78
2023/01/13 13:08:26;;;;;;;46.55;6.47;;;;;;;;;;5034355;28;20041;-79
2023/01/13 13:13:57;;;;;;;51.45;6.03;;;;;;;;;;5014179;28;20046;-77
2023/01/13 13:16:28;;;;;;;39.35;4.43;;;;;;;;;;5036724;28;20425;-78
2023/01/13 13:19:12;;;;;;;34.85;4.22;;;;;;;;;;5015381;28;20052;-77
2023/01/13 13:21:57;;;;;;;32.38;6.28;;;;;;;;;;5033300;28;20430;-77
2023/01/13 13:24:28;;;;;;;40.55;4.32;;;8.90;99.90;;;;;;5015768;28;20088;-76
2023/01/13 13:26:54;;;;;;;37.20;4.07;;;;;;;;;;5033469;28;20457;-77
2023/01/13 13:29:28;;;;;;;30.92;4.30;;;;;;;;;;5035242;28;20077;-77
2023/01/13 13:32:26;;;;;;;42.22;6.47;;;9.10;99.90;;;;;;5033241;28;20048;-77
2023/01/13 13:35:21;;;;;;;51.80;6.40;;;8.90;99.90;;;;;;5017051;28;20095;-77
2023/01/13 13:49:10;;;;;;;43.75;5.10;;;;;;;;;;5032853;28;20053;-77
2023/01/13 13:51:50;;;;;;;34.45;4.45;;;9.20;99.90;;;;;;5003936;28;20052;-76
2023/01/13 13:54:18;;;;;;;32.85;4.88;;;;;;;;;;5037785;28;20097;-77
2023/01/13 13:56:46;;;;;;;26.10;4.90;;;9.00;99.90;;;;;;5036071;28;20045;-76
2023/01/13 13:59:13;;;;;;;39.22;4.53;;;;;;;;;;5019830;28;20044;-77
2023/01/13 14:01:42;;;;;;;39.15;4.70;;;9.20;99.90;;;;;;5032824;28;20041;-77
2023/01/13 14:04:19;;;;;;;44.88;6.22;;;;;;;;;;5033050;28;20041;-77
2023/01/13 14:06:54;;;;;;;28.30;4.93;;;9.10;99.90;;;;;;5032494;28;20509;-77
2023/01/13 14:09:22;;;;;;;44.53;6.70;;;9.10;99.90;;;;;;5032758;28;20405;-77
2023/01/13 14:12:07;;;;;;;38.70;5.95;;;;;;;;;;5016510;28;20449;-78
2023/01/13 14:14:33;;;;;;;36.65;4.78;;;;;;;;;;5032593;28;20485;-76
2023/01/13 14:17:00;;;;;;;30.00;6.60;;;;;;;;;;5032602;28;20049;-76
2023/01/13 14:19:26;;;;;;;40.28;4.78;;;;;;;;;;5016073;28;20635;-77
2023/01/13 14:21:52;;;;;;;33.97;4.38;;;9.40;99.90;;;;;;5032574;28;20076;-76
2023/01/13 14:24:21;;;;;;;30.00;4.50;;;;;;;;;;5016130;28;20037;-77
2023/01/13 14:26:50;;;;;;;33.55;5.10;;;;;;;;;;5032402;28;20045;-77
2023/01/13 14:29:19;;;;;;;37.92;5.55;;;;;;;;;;5032620;28;20175;-77
2023/01/13 14:31:46;;;;;;;20.45;3.80;;;;;;;;;;5032707;28;20056;-77
2023/01/13 14:34:12;;;;;;;33.85;5.07;;;;;;;;;;5032363;28;20053;-77
2023/01/13 14:36:40;;;;;;;39.58;4.88;;;9.30;99.90;;;;;;5015912;28;20044;-77
2023/01/13 14:39:06;;;;;;;48.63;4.65;;;;;;;;;;5032531;28;20076;-77
2023/01/13 14:41:45;;;;;;;40.72;5.03;;;9.00;99.90;;;;;;5032023;28;20074;-77
2023/01/13 14:44:27;;;;;;;36.67;3.90;;;9.30;99.90;;;;;;5015704;28;20087;-78
2023/01/13 14:46:56;;;;;;;26.73;4.65;;;;;;;;;;5015650;28;20092;-78
2023/01/13 14:49:29;;;;;;;29.48;5.07;;;9.30;99.90;;;;;;5015779;28;20064;-78
2023/01/13 14:52:26;;;;;;;36.28;4.25;;;9.30;99.90;;;;;;5031923;28;20055;-77
2023/01/13 14:55:12;;;;;;;37.47;5.80;;;;;;;;;;5024251;28;20053;-77
2023/01/13 14:57:40;;;;;;;34.38;5.88;;;9.30;99.90;;;;;;5031813;28;20038;-78
2023/01/13 15:00:17;;;;;;;46.35;5.22;;;;;;;;;;5031941;28;20049;-77
2023/01/13 15:02:53;;;;;;;22.27;4.80;;;;;;;;;;5031746;28;20576;-77
2023/01/13 15:05:19;;;;;;;43.42;6.72;;;;;;;;;;5031803;28;20436;-77
2023/01/13 15:07:51;;;;;;;30.60;4.03;;;;;;;;;;5032003;28;20037;-78
2023/01/13 15:10:18;;;;;;;36.80;4.72;;;;;;;;;;5031918;28;20037;-77
2023/01/13 15:12:44;;;;;;;40.35;6.85;;;;;;;;;;5031589;28;20508;-78
2023/01/13 15:15:34;;;;;;;41.17;5.57;;;9.00;99.90;;;;;;5015647;28;20099;-77
2023/01/13 15:18:01;;;;;;;36.92;5.03;;;;;;;;;;5031733;28;20053;-77
2023/01/13 15:20:28;;;;;;;27.88;5.53;;;;;;;;;;5031973;28;20045;-77
2023/01/13 15:22:56;;;;;;;44.75;4.88;;;;;;;;;;5032021;28;20045;-77